sensor_id;sensor_type;location;lat;lon;timestamp;temperature;humidity
69393;SHT31;56582;44.624;20.378;2024-01-27T00:01:22;6.38;80.92
69393;SHT31;56582;44.624;20.378;2024-01-27T00:03:47;6.16;81.31
69393;SHT31;56582;44.624;20.378;2024-01-27T00:06:13;6.14;81.55
69393;SHT31;56582;44.624;20.378;2024-01-27T00:08:38;6.10;81.43
69393;SHT31;56582;44.624;20.378;2024-01-27T00:11:04;6.11;81.15
69393;SHT31;56582;44.624;20.378;2024-01-27T00:13:30;6.14;81.36
69393;SHT31;56582;44.624;20.378;2024-01-27T00:15:55;6.07;81.42
69393;SHT31;56582;44.624;20.378;2024-01-27T00:18:21;6.05;81.87
69393;SHT31;56582;44.624;20.378;2024-01-27T00:20:46;6.16;82.02
69393;SHT31;56582;44.624;20.378;2024-01-27T00:23:12;6.09;81.94
69393;SHT31;56582;44.624;20.378;2024-01-27T00:25:37;6.06;81.91
69393;SHT31;56582;44.624;20.378;2024-01-27T00:28:03;6.10;81.47
69393;SHT31;56582;44.624;20.378;2024-01-27T00:30:29;6.18;81.62
69393;SHT31;56582;44.624;20.378;2024-01-27T00:32:54;6.14;81.95
69393;SHT31;56582;44.624;20.378;2024-01-27T00:35:20;6.03;82.27
69393;SHT31;56582;44.624;20.378;2024-01-27T00:37:46;5.97;82.57
69393;SHT31;56582;44.624;20.378;2024-01-27T00:40:12;5.99;82.53
69393;SHT31;56582;44.624;20.378;2024-01-27T00:42:37;6.00;81.93
69393;SHT31;56582;44.624;20.378;2024-01-27T00:45:04;5.76;82.36
69393;SHT31;56582;44.624;20.378;2024-01-27T00:47:30;5.51;84.12
69393;SHT31;56582;44.624;20.378;2024-01-27T00:49:56;5.41;85.24
69393;SHT31;56582;44.624;20.378;2024-01-27T00:52:21;5.51;85.07
69393;SHT31;56582;44.624;20.378;2024-01-27T00:54:47;5.56;83.82
69393;SHT31;56582;44.624;20.378;2024-01-27T00:57:12;5.38;83.95
69393;SHT31;56582;44.624;20.378;2024-01-27T00:59:38;5.56;83.64
69393;SHT31;56582;44.624;20.378;2024-01-27T01:02:04;5.55;83.75
69393;SHT31;56582;44.624;20.378;2024-01-27T01:04:29;5.66;83.61
69393;SHT31;56582;44.624;20.378;2024-01-27T01:06:55;5.66;83.97
69393;SHT31;56582;44.624;20.378;2024-01-27T01:09:21;5.76;84.00
69393;SHT31;56582;44.624;20.378;2024-01-27T01:11:46;5.72;84.06
69393;SHT31;56582;44.624;20.378;2024-01-27T01:14:12;5.63;84.08
69393;SHT31;56582;44.624;20.378;2024-01-27T01:16:38;5.55;84.52
69393;SHT31;56582;44.624;20.378;2024-01-27T01:19:04;5.68;84.13
69393;SHT31;56582;44.624;20.378;2024-01-27T01:21:29;5.75;84.35
69393;SHT31;56582;44.624;20.378;2024-01-27T01:23:55;5.79;83.81
69393;SHT31;56582;44.624;20.378;2024-01-27T01:26:20;5.73;83.68
69393;SHT31;56582;44.624;20.378;2024-01-27T01:28:46;5.65;84.06
69393;SHT31;56582;44.624;20.378;2024-01-27T01:31:11;5.65;84.19
69393;SHT31;56582;44.624;20.378;2024-01-27T01:33:37;5.79;84.07
69393;SHT31;56582;44.624;20.378;2024-01-27T01:36:02;5.83;84.07
69393;SHT31;56582;44.624;20.378;2024-01-27T01:38:28;5.97;84.05
69393;SHT31;56582;44.624;20.378;2024-01-27T01:40:53;5.80;84.21
69393;SHT31;56582;44.624;20.378;2024-01-27T01:43:19;5.73;84.56
69393;SHT31;56582;44.624;20.378;2024-01-27T01:45:44;5.72;84.37
69393;SHT31;56582;44.624;20.378;2024-01-27T01:48:10;5.87;84.01
69393;SHT31;56582;44.624;20.378;2024-01-27T01:50:36;5.97;84.11
69393;SHT31;56582;44.624;20.378;2024-01-27T01:53:01;5.90;83.94
69393;SHT31;56582;44.624;20.378;2024-01-27T01:55:27;5.80;84.24
69393;SHT31;56582;44.624;20.378;2024-01-27T01:57:53;5.95;84.14
69393;SHT31;56582;44.624;20.378;2024-01-27T02:00:18;5.86;84.58
69393;SHT31;56582;44.624;20.378;2024-01-27T02:02:44;5.78;85.21
69393;SHT31;56582;44.624;20.378;2024-01-27T02:05:12;5.73;85.12
69393;SHT31;56582;44.624;20.378;2024-01-27T02:07:37;5.68;85.06
69393;SHT31;56582;44.624;20.378;2024-01-27T02:10:03;5.80;84.91
69393;SHT31;56582;44.624;20.378;2024-01-27T02:12:29;5.85;84.79
69393;SHT31;56582;44.624;20.378;2024-01-27T02:14:54;5.89;85.05
69393;SHT31;56582;44.624;20.378;2024-01-27T02:17:20;5.90;84.55
69393;SHT31;56582;44.624;20.378;2024-01-27T02:19:45;5.79;85.60
69393;SHT31;56582;44.624;20.378;2024-01-27T02:22:11;5.38;87.23
69393;SHT31;56582;44.624;20.378;2024-01-27T02:24:36;5.63;89.68
69393;SHT31;56582;44.624;20.378;2024-01-27T02:27:02;5.63;90.60
69393;SHT31;56582;44.624;20.378;2024-01-27T02:29:27;5.45;90.82
69393;SHT31;56582;44.624;20.378;2024-01-27T02:31:54;5.21;91.32
69393;SHT31;56582;44.624;20.378;2024-01-27T02:34:20;5.06;91.50
69393;SHT31;56582;44.624;20.378;2024-01-27T02:36:45;4.93;91.70
69393;SHT31;56582;44.624;20.378;2024-01-27T02:39:14;4.94;91.97
69393;SHT31;56582;44.624;20.378;2024-01-27T02:41:39;4.89;91.25
69393;SHT31;56582;44.624;20.378;2024-01-27T02:44:05;4.52;91.67
69393;SHT31;56582;44.624;20.378;2024-01-27T02:46:31;4.63;91.95
69393;SHT31;56582;44.624;20.378;2024-01-27T02:48:57;4.52;92.61
69393;SHT31;56582;44.624;20.378;2024-01-27T02:51:22;4.32;92.95
69393;SHT31;56582;44.624;20.378;2024-01-27T02:53:48;4.32;93.31
69393;SHT31;56582;44.624;20.378;2024-01-27T02:56:16;4.48;92.85
69393;SHT31;56582;44.624;20.378;2024-01-27T02:58:41;4.52;92.21
69393;SHT31;56582;44.624;20.378;2024-01-27T03:01:07;4.39;92.03
69393;SHT31;56582;44.624;20.378;2024-01-27T03:03:33;4.35;92.64
69393;SHT31;56582;44.624;20.378;2024-01-27T03:05:59;4.46;92.39
69393;SHT31;56582;44.624;20.378;2024-01-27T03:08:24;4.32;92.70
69393;SHT31;56582;44.624;20.378;2024-01-27T03:10:50;4.38;92.49
69393;SHT31;56582;44.624;20.378;2024-01-27T03:13:15;4.49;92.53
69393;SHT31;56582;44.624;20.378;2024-01-27T03:15:41;4.52;92.39
69393;SHT31;56582;44.624;20.378;2024-01-27T03:18:08;4.50;92.69
69393;SHT31;56582;44.624;20.378;2024-01-27T03:20:34;4.50;92.94
69393;SHT31;56582;44.624;20.378;2024-01-27T03:22:59;4.42;93.15
69393;SHT31;56582;44.624;20.378;2024-01-27T03:25:25;4.59;92.90
69393;SHT31;56582;44.624;20.378;2024-01-27T03:27:51;4.65;92.76
69393;SHT31;56582;44.624;20.378;2024-01-27T03:30:17;4.65;92.72
69393;SHT31;56582;44.624;20.378;2024-01-27T03:32:42;4.73;92.81
69393;SHT31;56582;44.624;20.378;2024-01-27T03:35:08;4.66;93.04
69393;SHT31;56582;44.624;20.378;2024-01-27T03:37:34;4.84;92.43
69393;SHT31;56582;44.624;20.378;2024-01-27T03:40:00;4.75;92.75
69393;SHT31;56582;44.624;20.378;2024-01-27T03:42:26;4.72;92.81
69393;SHT31;56582;44.624;20.378;2024-01-27T03:44:52;4.79;92.83
69393;SHT31;56582;44.624;20.378;2024-01-27T03:47:17;4.94;92.61
69393;SHT31;56582;44.624;20.378;2024-01-27T03:49:43;5.03;91.63
69393;SHT31;56582;44.624;20.378;2024-01-27T03:52:08;5.10;91.62
69393;SHT31;56582;44.624;20.378;2024-01-27T03:54:34;5.03;91.61
69393;SHT31;56582;44.624;20.378;2024-01-27T03:56:59;5.23;91.02
69393;SHT31;56582;44.624;20.378;2024-01-27T03:59:25;5.21;91.10
69393;SHT31;56582;44.624;20.378;2024-01-27T04:01:50;5.17;90.81
69393;SHT31;56582;44.624;20.378;2024-01-27T04:04:16;5.26;90.96
69393;SHT31;56582;44.624;20.378;2024-01-27T04:06:42;5.16;90.69
69393;SHT31;56582;44.624;20.378;2024-01-27T04:09:07;5.34;90.16
69393;SHT31;56582;44.624;20.378;2024-01-27T04:11:37;5.42;89.79
69393;SHT31;56582;44.624;20.378;2024-01-27T04:14:03;5.54;88.95
69393;SHT31;56582;44.624;20.378;2024-01-27T04:16:30;5.54;88.66
69393;SHT31;56582;44.624;20.378;2024-01-27T04:18:55;5.45;88.50
69393;SHT31;56582;44.624;20.378;2024-01-27T04:21:21;5.55;88.24
69393;SHT31;56582;44.624;20.378;2024-01-27T04:23:46;5.45;88.45
69393;SHT31;56582;44.624;20.378;2024-01-27T04:26:12;5.45;88.18
69393;SHT31;56582;44.624;20.378;2024-01-27T04:28:37;5.38;87.91
69393;SHT31;56582;44.624;20.378;2024-01-27T04:31:03;5.35;87.75
69393;SHT31;56582;44.624;20.378;2024-01-27T04:33:29;5.38;87.57
69393;SHT31;56582;44.624;20.378;2024-01-27T04:35:55;5.23;87.68
69393;SHT31;56582;44.624;20.378;2024-01-27T04:38:20;5.26;87.66
69393;SHT31;56582;44.624;20.378;2024-01-27T04:40:46;5.18;87.62
69393;SHT31;56582;44.624;20.378;2024-01-27T04:43:15;5.28;87.51
69393;SHT31;56582;44.624;20.378;2024-01-27T04:45:41;5.20;87.42
69393;SHT31;56582;44.624;20.378;2024-01-27T04:48:07;5.16;87.25
69393;SHT31;56582;44.624;20.378;2024-01-27T04:50:32;5.13;87.55
69393;SHT31;56582;44.624;20.378;2024-01-27T04:52:58;5.17;86.62
69393;SHT31;56582;44.624;20.378;2024-01-27T04:55:23;5.11;86.58
69393;SHT31;56582;44.624;20.378;2024-01-27T04:57:49;5.00;87.01
69393;SHT31;56582;44.624;20.378;2024-01-27T05:00:15;4.99;87.02
69393;SHT31;56582;44.624;20.378;2024-01-27T05:02:41;4.87;87.52
69393;SHT31;56582;44.624;20.378;2024-01-27T05:05:07;4.77;87.30
69393;SHT31;56582;44.624;20.378;2024-01-27T05:07:33;4.96;85.96
69393;SHT31;56582;44.624;20.378;2024-01-27T05:09:58;4.87;85.89
69393;SHT31;56582;44.624;20.378;2024-01-27T05:12:24;4.97;85.59
69393;SHT31;56582;44.624;20.378;2024-01-27T05:14:49;4.87;85.44
69393;SHT31;56582;44.624;20.378;2024-01-27T05:17:15;4.81;85.54
69393;SHT31;56582;44.624;20.378;2024-01-27T05:19:40;4.84;85.56
69393;SHT31;56582;44.624;20.378;2024-01-27T05:22:06;4.80;85.44
69393;SHT31;56582;44.624;20.378;2024-01-27T05:24:31;4.80;85.33
69393;SHT31;56582;44.624;20.378;2024-01-27T05:26:57;4.68;85.57
69393;SHT31;56582;44.624;20.378;2024-01-27T05:29:22;4.84;84.74
69393;SHT31;56582;44.624;20.378;2024-01-27T05:31:48;4.80;84.51
69393;SHT31;56582;44.624;20.378;2024-01-27T05:34:13;4.77;84.64
69393;SHT31;56582;44.624;20.378;2024-01-27T05:36:40;4.59;85.04
69393;SHT31;56582;44.624;20.378;2024-01-27T05:39:05;4.62;84.53
69393;SHT31;56582;44.624;20.378;2024-01-27T05:41:32;4.76;83.73
69393;SHT31;56582;44.624;20.378;2024-01-27T05:43:58;4.68;83.76
69393;SHT31;56582;44.624;20.378;2024-01-27T05:46:24;4.62;83.75
69393;SHT31;56582;44.624;20.378;2024-01-27T05:48:51;4.68;83.45
69393;SHT31;56582;44.624;20.378;2024-01-27T05:51:19;4.63;83.06
69393;SHT31;56582;44.624;20.378;2024-01-27T05:53:45;4.59;82.68
69393;SHT31;56582;44.624;20.378;2024-01-27T05:56:11;4.70;82.36
69393;SHT31;56582;44.624;20.378;2024-01-27T05:58:37;4.80;81.66
69393;SHT31;56582;44.624;20.378;2024-01-27T06:01:03;4.69;81.82
69393;SHT31;56582;44.624;20.378;2024-01-27T06:03:29;4.75;82.26
69393;SHT31;56582;44.624;20.378;2024-01-27T06:05:54;4.72;81.82
69393;SHT31;56582;44.624;20.378;2024-01-27T06:08:20;4.72;81.65
69393;SHT31;56582;44.624;20.378;2024-01-27T06:10:46;4.60;82.01
69393;SHT31;56582;44.624;20.378;2024-01-27T06:13:12;4.72;81.37
69393;SHT31;56582;44.624;20.378;2024-01-27T06:15:37;4.70;81.95
69393;SHT31;56582;44.624;20.378;2024-01-27T06:18:03;4.63;81.95
69393;SHT31;56582;44.624;20.378;2024-01-27T06:20:29;4.65;81.92
69393;SHT31;56582;44.624;20.378;2024-01-27T06:22:54;4.69;81.79
69393;SHT31;56582;44.624;20.378;2024-01-27T06:25:20;4.48;82.26
69393;SHT31;56582;44.624;20.378;2024-01-27T06:27:47;4.60;82.36
69393;SHT31;56582;44.624;20.378;2024-01-27T06:30:13;4.53;82.21
69393;SHT31;56582;44.624;20.378;2024-01-27T06:32:39;4.53;82.49
69393;SHT31;56582;44.624;20.378;2024-01-27T06:35:05;4.52;82.71
69393;SHT31;56582;44.624;20.378;2024-01-27T06:37:31;4.48;82.11
69393;SHT31;56582;44.624;20.378;2024-01-27T06:39:56;4.53;82.06
69393;SHT31;56582;44.624;20.378;2024-01-27T06:42:22;4.35;82.36
69393;SHT31;56582;44.624;20.378;2024-01-27T06:44:47;4.46;82.46
69393;SHT31;56582;44.624;20.378;2024-01-27T06:47:13;4.49;82.18
69393;SHT31;56582;44.624;20.378;2024-01-27T06:49:39;4.38;82.34
69393;SHT31;56582;44.624;20.378;2024-01-27T06:52:04;4.39;81.88
69393;SHT31;56582;44.624;20.378;2024-01-27T06:54:30;4.42;82.34
69393;SHT31;56582;44.624;20.378;2024-01-27T06:56:55;4.46;82.24
69393;SHT31;56582;44.624;20.378;2024-01-27T06:59:21;4.46;81.83
69393;SHT31;56582;44.624;20.378;2024-01-27T07:01:47;4.52;81.37
69393;SHT31;56582;44.624;20.378;2024-01-27T07:04:17;4.56;81.45
69393;SHT31;56582;44.624;20.378;2024-01-27T07:06:43;4.63;81.29
69393;SHT31;56582;44.624;20.378;2024-01-27T07:09:08;4.63;80.94
69393;SHT31;56582;44.624;20.378;2024-01-27T07:11:37;4.66;80.81
69393;SHT31;56582;44.624;20.378;2024-01-27T07:14:03;4.80;81.26
69393;SHT31;56582;44.624;20.378;2024-01-27T07:16:29;4.97;80.42
69393;SHT31;56582;44.624;20.378;2024-01-27T07:18:54;4.93;79.67
69393;SHT31;56582;44.624;20.378;2024-01-27T07:21:22;4.93;79.73
69393;SHT31;56582;44.624;20.378;2024-01-27T07:23:58;4.93;79.04
69393;SHT31;56582;44.624;20.378;2024-01-27T07:26:50;4.97;78.22
69393;SHT31;56582;44.624;20.378;2024-01-27T07:29:18;5.06;78.85
69393;SHT31;56582;44.624;20.378;2024-01-27T07:31:49;5.17;78.75
69393;SHT31;56582;44.624;20.378;2024-01-27T07:37:59;5.16;78.41
69393;SHT31;56582;44.624;20.378;2024-01-27T07:40:44;5.14;78.12
69393;SHT31;56582;44.624;20.378;2024-01-27T07:43:10;5.18;78.83
69393;SHT31;56582;44.624;20.378;2024-01-27T07:45:36;5.08;78.34
69393;SHT31;56582;44.624;20.378;2024-01-27T07:48:02;5.17;78.28
69393;SHT31;56582;44.624;20.378;2024-01-27T07:50:28;5.13;78.55
69393;SHT31;56582;44.624;20.378;2024-01-27T07:52:54;5.30;77.93
69393;SHT31;56582;44.624;20.378;2024-01-27T07:55:19;5.26;77.83
69393;SHT31;56582;44.624;20.378;2024-01-27T07:57:44;5.10;78.89
69393;SHT31;56582;44.624;20.378;2024-01-27T08:00:10;5.08;78.60
69393;SHT31;56582;44.624;20.378;2024-01-27T08:02:36;5.06;78.49
69393;SHT31;56582;44.624;20.378;2024-01-27T08:05:03;5.16;78.39
69393;SHT31;56582;44.624;20.378;2024-01-27T08:07:29;5.21;78.59
69393;SHT31;56582;44.624;20.378;2024-01-27T08:09:55;5.39;77.86
69393;SHT31;56582;44.624;20.378;2024-01-27T08:12:22;5.31;77.99
69393;SHT31;56582;44.624;20.378;2024-01-27T08:14:48;5.35;77.76
69393;SHT31;56582;44.624;20.378;2024-01-27T08:17:13;5.49;77.16
69393;SHT31;56582;44.624;20.378;2024-01-27T08:19:39;5.56;77.18
69393;SHT31;56582;44.624;20.378;2024-01-27T08:22:05;5.80;76.28
69393;SHT31;56582;44.624;20.378;2024-01-27T08:24:30;5.80;76.77
69393;SHT31;56582;44.624;20.378;2024-01-27T08:26:56;5.83;75.84
69393;SHT31;56582;44.624;20.378;2024-01-27T08:29:21;5.89;75.67
69393;SHT31;56582;44.624;20.378;2024-01-27T08:31:47;6.03;74.74
69393;SHT31;56582;44.624;20.378;2024-01-27T08:34:12;6.05;74.09
69393;SHT31;56582;44.624;20.378;2024-01-27T08:36:38;6.10;73.76
69393;SHT31;56582;44.624;20.378;2024-01-27T08:39:03;6.18;74.16
69393;SHT31;56582;44.624;20.378;2024-01-27T08:41:32;6.18;74.42
69393;SHT31;56582;44.624;20.378;2024-01-27T08:43:58;6.18;74.79
69393;SHT31;56582;44.624;20.378;2024-01-27T08:46:23;6.18;73.90
69393;SHT31;56582;44.624;20.378;2024-01-27T08:48:49;6.24;73.33
69393;SHT31;56582;44.624;20.378;2024-01-27T08:51:15;6.27;73.27
69393;SHT31;56582;44.624;20.378;2024-01-27T08:53:43;6.48;73.41
69393;SHT31;56582;44.624;20.378;2024-01-27T08:56:14;6.58;72.01
69393;SHT31;56582;44.624;20.378;2024-01-27T08:58:40;6.44;70.30
69393;SHT31;56582;44.624;20.378;2024-01-27T09:01:06;6.45;70.51
69393;SHT31;56582;44.624;20.378;2024-01-27T09:03:34;6.57;70.51
69393;SHT31;56582;44.624;20.378;2024-01-27T09:05:59;6.52;70.37
69393;SHT31;56582;44.624;20.378;2024-01-27T09:08:25;6.71;68.95
69393;SHT31;56582;44.624;20.378;2024-01-27T09:10:51;6.63;68.24
69393;SHT31;56582;44.624;20.378;2024-01-27T09:13:17;6.54;67.83
69393;SHT31;56582;44.624;20.378;2024-01-27T09:15:42;6.57;68.42
69393;SHT31;56582;44.624;20.378;2024-01-27T09:18:08;6.74;67.98
69393;SHT31;56582;44.624;20.378;2024-01-27T09:20:33;6.61;67.17
69393;SHT31;56582;44.624;20.378;2024-01-27T09:22:59;6.69;68.02
69393;SHT31;56582;44.624;20.378;2024-01-27T09:25:24;6.71;67.02
69393;SHT31;56582;44.624;20.378;2024-01-27T09:27:53;6.75;66.98
69393;SHT31;56582;44.624;20.378;2024-01-27T09:30:18;6.86;67.33
69393;SHT31;56582;44.624;20.378;2024-01-27T09:32:44;6.82;65.85
69393;SHT31;56582;44.624;20.378;2024-01-27T09:35:09;6.74;65.56
69393;SHT31;56582;44.624;20.378;2024-01-27T09:37:35;6.69;65.31
69393;SHT31;56582;44.624;20.378;2024-01-27T09:40:00;6.71;64.94
69393;SHT31;56582;44.624;20.378;2024-01-27T09:42:28;6.84;64.92
69393;SHT31;56582;44.624;20.378;2024-01-27T09:44:56;6.78;64.73
69393;SHT31;56582;44.624;20.378;2024-01-27T09:47:25;6.69;65.04
69393;SHT31;56582;44.624;20.378;2024-01-27T09:49:50;6.95;65.82
69393;SHT31;56582;44.624;20.378;2024-01-27T09:52:16;7.10;65.72
69393;SHT31;56582;44.624;20.378;2024-01-27T09:54:42;7.06;65.38
69393;SHT31;56582;44.624;20.378;2024-01-27T09:57:09;7.03;65.16
69393;SHT31;56582;44.624;20.378;2024-01-27T09:59:36;6.82;65.33
69393;SHT31;56582;44.624;20.378;2024-01-27T10:02:03;6.92;66.57
69393;SHT31;56582;44.624;20.378;2024-01-27T10:04:29;7.09;66.01
69393;SHT31;56582;44.624;20.378;2024-01-27T10:06:57;6.82;66.17
69393;SHT31;56582;44.624;20.378;2024-01-27T10:09:23;6.86;66.96
69393;SHT31;56582;44.624;20.378;2024-01-27T10:11:49;7.13;68.40
69393;SHT31;56582;44.624;20.378;2024-01-27T10:14:15;7.07;67.31
69393;SHT31;56582;44.624;20.378;2024-01-27T10:16:43;7.12;66.67
69393;SHT31;56582;44.624;20.378;2024-01-27T10:19:17;7.10;67.07
69393;SHT31;56582;44.624;20.378;2024-01-27T10:21:47;7.05;65.49
69393;SHT31;56582;44.624;20.378;2024-01-27T10:24:14;7.26;67.82
69393;SHT31;56582;44.624;20.378;2024-01-27T10:26:42;7.44;67.83
69393;SHT31;56582;44.624;20.378;2024-01-27T10:29:14;7.51;66.42
69393;SHT31;56582;44.624;20.378;2024-01-27T10:31:39;7.24;65.89
69393;SHT31;56582;44.624;20.378;2024-01-27T10:34:05;7.06;65.02
69393;SHT31;56582;44.624;20.378;2024-01-27T10:36:41;7.20;66.08
69393;SHT31;56582;44.624;20.378;2024-01-27T10:39:22;7.36;65.09
69393;SHT31;56582;44.624;20.378;2024-01-27T10:41:50;7.23;65.12
69393;SHT31;56582;44.624;20.378;2024-01-27T10:44:17;7.36;65.24
69393;SHT31;56582;44.624;20.378;2024-01-27T10:46:44;7.30;65.50
69393;SHT31;56582;44.624;20.378;2024-01-27T10:49:15;7.37;65.51
69393;SHT31;56582;44.624;20.378;2024-01-27T10:51:45;7.58;64.69
69393;SHT31;56582;44.624;20.378;2024-01-27T10:54:15;7.65;64.63
69393;SHT31;56582;44.624;20.378;2024-01-27T10:56:45;7.67;64.88
69393;SHT31;56582;44.624;20.378;2024-01-27T10:59:11;7.71;63.96
69393;SHT31;56582;44.624;20.378;2024-01-27T11:01:40;7.63;62.91
69393;SHT31;56582;44.624;20.378;2024-01-27T11:04:11;7.73;63.53
69393;SHT31;56582;44.624;20.378;2024-01-27T11:06:39;7.61;63.89
69393;SHT31;56582;44.624;20.378;2024-01-27T11:09:05;7.58;64.31
69393;SHT31;56582;44.624;20.378;2024-01-27T11:11:33;7.40;63.60
69393;SHT31;56582;44.624;20.378;2024-01-27T11:14:00;7.47;63.71
69393;SHT31;56582;44.624;20.378;2024-01-27T11:16:25;7.26;63.43
69393;SHT31;56582;44.624;20.378;2024-01-27T11:18:52;7.26;63.67
69393;SHT31;56582;44.624;20.378;2024-01-27T11:21:18;7.13;63.52
69393;SHT31;56582;44.624;20.378;2024-01-27T11:23:44;7.23;63.93
69393;SHT31;56582;44.624;20.378;2024-01-27T11:26:18;7.22;64.37
69393;SHT31;56582;44.624;20.378;2024-01-27T11:28:44;7.50;65.30
69393;SHT31;56582;44.624;20.378;2024-01-27T11:31:10;7.12;64.13
69393;SHT31;56582;44.624;20.378;2024-01-27T11:33:43;6.99;65.00
69393;SHT31;56582;44.624;20.378;2024-01-27T11:36:20;7.03;65.86
69393;SHT31;56582;44.624;20.378;2024-01-27T11:38:47;7.19;66.35
69393;SHT31;56582;44.624;20.378;2024-01-27T11:41:13;7.27;66.39
69393;SHT31;56582;44.624;20.378;2024-01-27T11:43:52;7.17;66.61
69393;SHT31;56582;44.624;20.378;2024-01-27T11:46:18;7.30;66.19
69393;SHT31;56582;44.624;20.378;2024-01-27T11:48:43;7.10;66.78
69393;SHT31;56582;44.624;20.378;2024-01-27T11:51:12;7.36;65.84
69393;SHT31;56582;44.624;20.378;2024-01-27T11:53:38;7.23;67.03
69393;SHT31;56582;44.624;20.378;2024-01-27T11:56:04;7.27;67.37
69393;SHT31;56582;44.624;20.378;2024-01-27T11:58:33;7.33;67.26
69393;SHT31;56582;44.624;20.378;2024-01-27T12:00:59;7.06;66.82
69393;SHT31;56582;44.624;20.378;2024-01-27T12:03:24;7.03;66.67
69393;SHT31;56582;44.624;20.378;2024-01-27T12:05:50;7.00;67.34
69393;SHT31;56582;44.624;20.378;2024-01-27T12:08:17;7.13;67.24
69393;SHT31;56582;44.624;20.378;2024-01-27T12:10:44;7.15;67.14
69393;SHT31;56582;44.624;20.378;2024-01-27T12:13:10;7.12;65.82
69393;SHT31;56582;44.624;20.378;2024-01-27T12:15:35;6.96;65.13
69393;SHT31;56582;44.624;20.378;2024-01-27T12:18:01;6.85;65.44
69393;SHT31;56582;44.624;20.378;2024-01-27T12:20:30;6.74;65.62
69393;SHT31;56582;44.624;20.378;2024-01-27T12:23:06;6.86;65.72
69393;SHT31;56582;44.624;20.378;2024-01-27T12:25:32;6.79;65.18
69393;SHT31;56582;44.624;20.378;2024-01-27T12:28:05;6.86;65.63
69393;SHT31;56582;44.624;20.378;2024-01-27T12:30:33;7.07;65.38
69393;SHT31;56582;44.624;20.378;2024-01-27T12:33:00;7.03;65.27
69393;SHT31;56582;44.624;20.378;2024-01-27T12:35:26;7.09;65.73
69393;SHT31;56582;44.624;20.378;2024-01-27T12:37:54;7.06;64.99
69393;SHT31;56582;44.624;20.378;2024-01-27T12:40:21;6.97;65.00
69393;SHT31;56582;44.624;20.378;2024-01-27T12:42:47;7.06;65.31
69393;SHT31;56582;44.624;20.378;2024-01-27T12:45:13;7.09;65.49
69393;SHT31;56582;44.624;20.378;2024-01-27T12:47:39;7.09;65.08
69393;SHT31;56582;44.624;20.378;2024-01-27T12:50:06;6.91;65.23
69393;SHT31;56582;44.624;20.378;2024-01-27T12:52:32;7.05;65.12
69393;SHT31;56582;44.624;20.378;2024-01-27T12:54:57;7.15;64.52
69393;SHT31;56582;44.624;20.378;2024-01-27T12:57:23;7.23;64.40
69393;SHT31;56582;44.624;20.378;2024-01-27T12:59:48;7.46;64.65
69393;SHT31;56582;44.624;20.378;2024-01-27T13:02:14;7.54;65.06
69393;SHT31;56582;44.624;20.378;2024-01-27T13:04:41;7.37;64.57
69393;SHT31;56582;44.624;20.378;2024-01-27T13:07:07;7.36;64.37
69393;SHT31;56582;44.624;20.378;2024-01-27T13:09:38;7.17;65.27
69393;SHT31;56582;44.624;20.378;2024-01-27T13:12:04;7.17;64.42
69393;SHT31;56582;44.624;20.378;2024-01-27T13:14:36;7.13;65.54
69393;SHT31;56582;44.624;20.378;2024-01-27T13:17:03;6.91;65.93
69393;SHT31;56582;44.624;20.378;2024-01-27T13:19:28;6.79;66.25
69393;SHT31;56582;44.624;20.378;2024-01-27T13:21:56;6.79;66.37
69393;SHT31;56582;44.624;20.378;2024-01-27T13:24:22;6.79;66.24
69393;SHT31;56582;44.624;20.378;2024-01-27T13:26:50;6.82;65.86
69393;SHT31;56582;44.624;20.378;2024-01-27T13:29:17;6.71;65.45
69393;SHT31;56582;44.624;20.378;2024-01-27T13:31:43;6.72;65.22
69393;SHT31;56582;44.624;20.378;2024-01-27T13:34:12;6.76;64.36
69393;SHT31;56582;44.624;20.378;2024-01-27T13:36:38;6.96;62.93
69393;SHT31;56582;44.624;20.378;2024-01-27T13:39:04;6.97;63.09
69393;SHT31;56582;44.624;20.378;2024-01-27T13:41:30;6.96;63.52
69393;SHT31;56582;44.624;20.378;2024-01-27T13:44:02;7.05;63.68
69393;SHT31;56582;44.624;20.378;2024-01-27T13:46:30;7.15;63.46
69393;SHT31;56582;44.624;20.378;2024-01-27T13:48:56;7.16;63.91
69393;SHT31;56582;44.624;20.378;2024-01-27T13:51:26;7.27;63.91
69393;SHT31;56582;44.624;20.378;2024-01-27T13:53:52;7.31;64.14
69393;SHT31;56582;44.624;20.378;2024-01-27T13:56:22;7.24;64.97
69393;SHT31;56582;44.624;20.378;2024-01-27T13:58:47;7.20;65.68
69393;SHT31;56582;44.624;20.378;2024-01-27T14:01:13;7.16;65.57
69393;SHT31;56582;44.624;20.378;2024-01-27T14:03:39;7.06;64.28
69393;SHT31;56582;44.624;20.378;2024-01-27T14:06:06;6.93;63.14
69393;SHT31;56582;44.624;20.378;2024-01-27T14:08:34;6.88;63.63
69393;SHT31;56582;44.624;20.378;2024-01-27T14:11:24;7.03;64.01
69393;SHT31;56582;44.624;20.378;2024-01-27T14:13:58;7.09;64.20
69393;SHT31;56582;44.624;20.378;2024-01-27T14:16:24;7.23;64.55
69393;SHT31;56582;44.624;20.378;2024-01-27T14:18:51;7.12;64.83
69393;SHT31;56582;44.624;20.378;2024-01-27T14:21:16;7.23;65.49
69393;SHT31;56582;44.624;20.378;2024-01-27T14:23:42;7.33;66.01
69393;SHT31;56582;44.624;20.378;2024-01-27T14:26:12;7.31;65.39
69393;SHT31;56582;44.624;20.378;2024-01-27T14:28:42;7.44;62.96
69393;SHT31;56582;44.624;20.378;2024-01-27T14:31:07;7.19;63.09
69393;SHT31;56582;44.624;20.378;2024-01-27T14:33:33;6.95;63.26
69393;SHT31;56582;44.624;20.378;2024-01-27T14:35:59;6.93;63.99
69393;SHT31;56582;44.624;20.378;2024-01-27T14:38:25;6.93;64.73
69393;SHT31;56582;44.624;20.378;2024-01-27T14:40:52;6.84;64.52
69393;SHT31;56582;44.624;20.378;2024-01-27T14:43:27;6.72;64.80
69393;SHT31;56582;44.624;20.378;2024-01-27T14:45:53;6.65;65.71
69393;SHT31;56582;44.624;20.378;2024-01-27T14:48:18;6.52;65.77
69393;SHT31;56582;44.624;20.378;2024-01-27T14:50:45;6.40;66.49
69393;SHT31;56582;44.624;20.378;2024-01-27T14:53:19;6.51;66.50
69393;SHT31;56582;44.624;20.378;2024-01-27T14:55:46;6.45;66.84
69393;SHT31;56582;44.624;20.378;2024-01-27T14:58:11;6.42;66.97
69393;SHT31;56582;44.624;20.378;2024-01-27T15:00:37;6.31;67.07
69393;SHT31;56582;44.624;20.378;2024-01-27T15:03:06;6.40;66.88
69393;SHT31;56582;44.624;20.378;2024-01-27T15:05:31;6.31;67.19
69393;SHT31;56582;44.624;20.378;2024-01-27T15:08:02;6.21;67.44
69393;SHT31;56582;44.624;20.378;2024-01-27T15:10:27;6.20;67.40
69393;SHT31;56582;44.624;20.378;2024-01-27T15:12:53;6.23;67.86
69393;SHT31;56582;44.624;20.378;2024-01-27T15:15:19;6.20;67.92
69393;SHT31;56582;44.624;20.378;2024-01-27T15:17:44;6.07;68.51
69393;SHT31;56582;44.624;20.378;2024-01-27T15:20:10;6.06;68.94
69393;SHT31;56582;44.624;20.378;2024-01-27T15:22:38;6.07;68.82
69393;SHT31;56582;44.624;20.378;2024-01-27T15:25:04;6.17;68.44
69393;SHT31;56582;44.624;20.378;2024-01-27T15:27:30;6.05;68.35
69393;SHT31;56582;44.624;20.378;2024-01-27T15:29:56;6.07;68.69